sensor_id;sensor_type;location;lat;lon;timestamp;P1;durP1;ratioP1;P2;durP2;ratioP2
71423;SDS011;59240;51.370;-0.486;2022-12-07T00:01:26;18.65;;;4.90;;
71423;SDS011;59240;51.370;-0.486;2022-12-07T00:03:55;17.42;;;5.18;;
71423;SDS011;59240;51.370;-0.486;2022-12-07T00:06:26;16.10;;;4.87;;
71423;SDS011;59240;51.370;-0.486;2022-12-07T00:08:53;16.20;;;5.40;;
71423;SDS011;59240;51.370;-0.486;2022-12-07T00:11:21;18.35;;;6.10;;
71423;SDS011;59240;51.370;-0.486;2022-12-07T00:13:52;15.75;;;5.55;;
71423;SDS011;59240;51.370;-0.486;2022-12-07T00:16:21;16.50;;;5.80;;
71423;SDS011;59240;51.370;-0.486;2022-12-07T00:18:49;16.87;;;5.00;;
71423;SDS011;59240;51.370;-0.486;2022-12-07T00:21:17;18.73;;;5.55;;
71423;SDS011;59240;51.370;-0.486;2022-12-07T00:23:46;23.15;;;6.40;;
71423;SDS011;59240;51.370;-0.486;2022-12-07T00:26:18;19.13;;;6.50;;
71423;SDS011;59240;51.370;-0.486;2022-12-07T00:28:47;17.77;;;6.63;;
71423;SDS011;59240;51.370;-0.486;2022-12-07T00:31:15;16.30;;;5.43;;
71423;SDS011;59240;51.370;-0.486;2022-12-07T00:33:44;18.15;;;6.60;;
71423;SDS011;59240;51.370;-0.486;2022-12-07T00:36:15;18.77;;;5.63;;
71423;SDS011;59240;51.370;-0.486;2022-12-07T00:38:51;18.50;;;6.22;;
71423;SDS011;59240;51.370;-0.486;2022-12-07T00:41:19;19.45;;;6.85;;
71423;SDS011;59240;51.370;-0.486;2022-12-07T00:43:48;14.80;;;5.23;;
71423;SDS011;59240;51.370;-0.486;2022-12-07T00:46:15;16.80;;;5.65;;
71423;SDS011;59240;51.370;-0.486;2022-12-07T00:48:43;17.92;;;6.68;;
71423;SDS011;59240;51.370;-0.486;2022-12-07T00:51:10;20.50;;;6.35;;
71423;SDS011;59240;51.370;-0.486;2022-12-07T00:53:39;18.85;;;6.55;;
71423;SDS011;59240;51.370;-0.486;2022-12-07T00:56:07;19.87;;;6.47;;
71423;SDS011;59240;51.370;-0.486;2022-12-07T00:58:35;17.50;;;5.68;;
71423;SDS011;59240;51.370;-0.486;2022-12-07T01:01:03;15.50;;;6.00;;
71423;SDS011;59240;51.370;-0.486;2022-12-07T01:03:31;20.98;;;6.15;;
71423;SDS011;59240;51.370;-0.486;2022-12-07T01:05:58;17.48;;;6.18;;
71423;SDS011;59240;51.370;-0.486;2022-12-07T01:08:26;17.90;;;6.13;;
71423;SDS011;59240;51.370;-0.486;2022-12-07T01:11:00;17.80;;;5.80;;
71423;SDS011;59240;51.370;-0.486;2022-12-07T01:13:32;20.17;;;6.30;;
71423;SDS011;59240;51.370;-0.486;2022-12-07T01:16:01;18.67;;;5.55;;
71423;SDS011;59240;51.370;-0.486;2022-12-07T01:18:32;16.38;;;5.20;;
71423;SDS011;59240;51.370;-0.486;2022-12-07T01:21:01;17.07;;;6.47;;
71423;SDS011;59240;51.370;-0.486;2022-12-07T01:23:30;17.60;;;5.53;;
71423;SDS011;59240;51.370;-0.486;2022-12-07T01:25:58;16.80;;;5.90;;
71423;SDS011;59240;51.370;-0.486;2022-12-07T01:28:27;18.30;;;5.88;;
71423;SDS011;59240;51.370;-0.486;2022-12-07T01:30:55;18.65;;;5.57;;
71423;SDS011;59240;51.370;-0.486;2022-12-07T01:33:27;14.80;;;5.40;;
71423;SDS011;59240;51.370;-0.486;2022-12-07T01:36:05;16.40;;;6.30;;
71423;SDS011;59240;51.370;-0.486;2022-12-07T01:38:33;19.83;;;5.78;;
71423;SDS011;59240;51.370;-0.486;2022-12-07T01:41:00;18.15;;;5.35;;
71423;SDS011;59240;51.370;-0.486;2022-12-07T01:43:28;18.10;;;5.53;;
71423;SDS011;59240;51.370;-0.486;2022-12-07T01:45:56;19.53;;;5.90;;
71423;SDS011;59240;51.370;-0.486;2022-12-07T01:48:39;18.15;;;5.75;;
71423;SDS011;59240;51.370;-0.486;2022-12-07T01:51:08;16.00;;;5.00;;
71423;SDS011;59240;51.370;-0.486;2022-12-07T01:53:38;19.02;;;5.63;;
71423;SDS011;59240;51.370;-0.486;2022-12-07T01:56:10;18.25;;;5.32;;
71423;SDS011;59240;51.370;-0.486;2022-12-07T01:58:40;20.30;;;5.07;;
71423;SDS011;59240;51.370;-0.486;2022-12-07T02:01:07;13.95;;;5.32;;
71423;SDS011;59240;51.370;-0.486;2022-12-07T02:03:43;20.27;;;5.88;;
71423;SDS011;59240;51.370;-0.486;2022-12-07T02:06:12;18.90;;;4.80;;
71423;SDS011;59240;51.370;-0.486;2022-12-07T02:08:42;15.65;;;4.93;;
71423;SDS011;59240;51.370;-0.486;2022-12-07T02:11:09;18.87;;;5.40;;
71423;SDS011;59240;51.370;-0.486;2022-12-07T02:13:38;17.70;;;5.47;;
71423;SDS011;59240;51.370;-0.486;2022-12-07T02:22:01;18.60;;;5.30;;
71423;SDS011;59240;51.370;-0.486;2022-12-07T02:30:39;20.27;;;5.25;;
71423;SDS011;59240;51.370;-0.486;2022-12-07T02:33:15;21.63;;;5.63;;
71423;SDS011;59240;51.370;-0.486;2022-12-07T02:35:51;17.45;;;5.35;;
71423;SDS011;59240;51.370;-0.486;2022-12-07T02:38:31;16.00;;;4.93;;
71423;SDS011;59240;51.370;-0.486;2022-12-07T02:44:00;15.05;;;5.03;;
71423;SDS011;59240;51.370;-0.486;2022-12-07T02:46:32;19.52;;;5.88;;
71423;SDS011;59240;51.370;-0.486;2022-12-07T02:49:02;14.95;;;5.22;;
71423;SDS011;59240;51.370;-0.486;2022-12-07T02:51:30;15.93;;;5.27;;
71423;SDS011;59240;51.370;-0.486;2022-12-07T02:53:58;18.80;;;6.15;;
71423;SDS011;59240;51.370;-0.486;2022-12-07T02:56:46;17.27;;;6.45;;
71423;SDS011;59240;51.370;-0.486;2022-12-07T02:59:25;18.52;;;5.45;;
71423;SDS011;59240;51.370;-0.486;2022-12-07T03:02:25;16.38;;;5.15;;
71423;SDS011;59240;51.370;-0.486;2022-12-07T03:15:42;16.83;;;5.68;;
71423;SDS011;59240;51.370;-0.486;2022-12-07T03:18:12;17.20;;;5.30;;
71423;SDS011;59240;51.370;-0.486;2022-12-07T03:20:42;16.77;;;4.80;;
71423;SDS011;59240;51.370;-0.486;2022-12-07T03:23:10;16.00;;;5.60;;
71423;SDS011;59240;51.370;-0.486;2022-12-07T03:25:39;16.55;;;5.07;;
71423;SDS011;59240;51.370;-0.486;2022-12-07T03:28:09;17.75;;;5.78;;
71423;SDS011;59240;51.370;-0.486;2022-12-07T03:30:55;14.77;;;5.17;;
71423;SDS011;59240;51.370;-0.486;2022-12-07T03:33:28;16.17;;;5.95;;
71423;SDS011;59240;51.370;-0.486;2022-12-07T03:39:25;16.92;;;4.80;;
71423;SDS011;59240;51.370;-0.486;2022-12-07T03:42:00;17.92;;;5.53;;
71423;SDS011;59240;51.370;-0.486;2022-12-07T03:44:28;17.37;;;5.07;;
71423;SDS011;59240;51.370;-0.486;2022-12-07T03:47:12;17.98;;;5.32;;
71423;SDS011;59240;51.370;-0.486;2022-12-07T03:49:50;16.77;;;5.18;;
71423;SDS011;59240;51.370;-0.486;2022-12-07T03:57:38;18.57;;;5.90;;
71423;SDS011;59240;51.370;-0.486;2022-12-07T04:00:09;16.35;;;4.90;;
71423;SDS011;59240;51.370;-0.486;2022-12-07T04:02:37;16.73;;;5.55;;
71423;SDS011;59240;51.370;-0.486;2022-12-07T04:05:04;17.42;;;4.90;;
71423;SDS011;59240;51.370;-0.486;2022-12-07T04:07:31;14.90;;;5.40;;
71423;SDS011;59240;51.370;-0.486;2022-12-07T04:09:58;20.97;;;5.00;;
71423;SDS011;59240;51.370;-0.486;2022-12-07T04:12:26;17.48;;;5.38;;
71423;SDS011;59240;51.370;-0.486;2022-12-07T04:14:52;16.55;;;4.85;;
71423;SDS011;59240;51.370;-0.486;2022-12-07T04:17:21;17.48;;;5.32;;
71423;SDS011;59240;51.370;-0.486;2022-12-07T04:19:48;20.55;;;6.10;;
71423;SDS011;59240;51.370;-0.486;2022-12-07T04:22:14;16.50;;;4.90;;
71423;SDS011;59240;51.370;-0.486;2022-12-07T04:24:41;17.70;;;5.55;;
71423;SDS011;59240;51.370;-0.486;2022-12-07T04:27:08;15.40;;;4.88;;
71423;SDS011;59240;51.370;-0.486;2022-12-07T04:29:34;13.63;;;4.70;;
71423;SDS011;59240;51.370;-0.486;2022-12-07T04:32:01;14.52;;;4.90;;
71423;SDS011;59240;51.370;-0.486;2022-12-07T04:34:27;18.17;;;5.57;;
71423;SDS011;59240;51.370;-0.486;2022-12-07T04:36:54;15.45;;;5.32;;
71423;SDS011;59240;51.370;-0.486;2022-12-07T04:39:25;19.55;;;5.90;;
71423;SDS011;59240;51.370;-0.486;2022-12-07T04:41:53;16.27;;;5.55;;
71423;SDS011;59240;51.370;-0.486;2022-12-07T04:44:21;18.98;;;5.20;;
71423;SDS011;59240;51.370;-0.486;2022-12-07T04:46:49;15.97;;;5.23;;
71423;SDS011;59240;51.370;-0.486;2022-12-07T04:49:17;15.68;;;5.28;;
71423;SDS011;59240;51.370;-0.486;2022-12-07T04:51:44;16.15;;;5.13;;
71423;SDS011;59240;51.370;-0.486;2022-12-07T04:54:11;19.00;;;5.47;;
71423;SDS011;59240;51.370;-0.486;2022-12-07T04:56:39;19.67;;;5.40;;
71423;SDS011;59240;51.370;-0.486;2022-12-07T04:59:06;21.20;;;5.40;;
71423;SDS011;59240;51.370;-0.486;2022-12-07T05:01:33;15.77;;;5.35;;
71423;SDS011;59240;51.370;-0.486;2022-12-07T05:04:00;15.45;;;5.18;;
71423;SDS011;59240;51.370;-0.486;2022-12-07T05:06:26;16.08;;;5.28;;
71423;SDS011;59240;51.370;-0.486;2022-12-07T05:08:53;16.23;;;5.15;;
71423;SDS011;59240;51.370;-0.486;2022-12-07T05:11:20;19.00;;;5.43;;
71423;SDS011;59240;51.370;-0.486;2022-12-07T05:14:06;20.67;;;5.70;;
71423;SDS011;59240;51.370;-0.486;2022-12-07T05:16:37;14.43;;;5.40;;
71423;SDS011;59240;51.370;-0.486;2022-12-07T05:19:05;13.63;;;4.88;;
71423;SDS011;59240;51.370;-0.486;2022-12-07T05:21:32;16.80;;;5.55;;
71423;SDS011;59240;51.370;-0.486;2022-12-07T05:23:59;17.77;;;5.20;;
71423;SDS011;59240;51.370;-0.486;2022-12-07T05:26:25;15.77;;;5.43;;
71423;SDS011;59240;51.370;-0.486;2022-12-07T05:28:53;18.17;;;5.38;;
71423;SDS011;59240;51.370;-0.486;2022-12-07T05:31:21;16.88;;;5.70;;
71423;SDS011;59240;51.370;-0.486;2022-12-07T05:33:48;18.80;;;5.93;;
71423;SDS011;59240;51.370;-0.486;2022-12-07T05:36:15;19.43;;;5.87;;
71423;SDS011;59240;51.370;-0.486;2022-12-07T05:38:42;17.77;;;6.03;;
71423;SDS011;59240;51.370;-0.486;2022-12-07T05:41:08;28.88;;;6.25;;
71423;SDS011;59240;51.370;-0.486;2022-12-07T05:44:00;15.02;;;4.85;;
71423;SDS011;59240;51.370;-0.486;2022-12-07T05:46:26;14.45;;;5.55;;
71423;SDS011;59240;51.370;-0.486;2022-12-07T05:48:53;14.77;;;4.90;;
71423;SDS011;59240;51.370;-0.486;2022-12-07T05:51:19;16.35;;;5.05;;
71423;SDS011;59240;51.370;-0.486;2022-12-07T05:53:46;18.88;;;5.40;;
71423;SDS011;59240;51.370;-0.486;2022-12-07T05:56:13;14.88;;;5.53;;
71423;SDS011;59240;51.370;-0.486;2022-12-07T05:58:40;19.33;;;5.68;;
71423;SDS011;59240;51.370;-0.486;2022-12-07T06:01:25;17.43;;;4.53;;
71423;SDS011;59240;51.370;-0.486;2022-12-07T06:03:52;14.80;;;5.13;;
71423;SDS011;59240;51.370;-0.486;2022-12-07T06:06:18;17.08;;;5.38;;
71423;SDS011;59240;51.370;-0.486;2022-12-07T06:08:45;17.80;;;5.55;;
71423;SDS011;59240;51.370;-0.486;2022-12-07T06:11:12;18.90;;;4.70;;
71423;SDS011;59240;51.370;-0.486;2022-12-07T06:13:57;16.27;;;5.10;;
71423;SDS011;59240;51.370;-0.486;2022-12-07T06:16:23;18.02;;;5.30;;
71423;SDS011;59240;51.370;-0.486;2022-12-07T06:18:50;19.17;;;5.60;;
71423;SDS011;59240;51.370;-0.486;2022-12-07T06:21:17;16.23;;;5.63;;
71423;SDS011;59240;51.370;-0.486;2022-12-07T06:23:43;16.83;;;4.97;;
71423;SDS011;59240;51.370;-0.486;2022-12-07T06:26:10;14.20;;;4.93;;
71423;SDS011;59240;51.370;-0.486;2022-12-07T06:28:36;15.07;;;4.97;;
71423;SDS011;59240;51.370;-0.486;2022-12-07T06:31:03;14.15;;;3.88;;
71423;SDS011;59240;51.370;-0.486;2022-12-07T06:33:34;8.30;;;2.42;;
71423;SDS011;59240;51.370;-0.486;2022-12-07T06:36:01;16.10;;;4.25;;
71423;SDS011;59240;51.370;-0.486;2022-12-07T06:38:27;12.43;;;4.07;;
71423;SDS011;59240;51.370;-0.486;2022-12-07T06:40:54;15.70;;;4.32;;
71423;SDS011;59240;51.370;-0.486;2022-12-07T06:43:21;12.88;;;4.78;;
71423;SDS011;59240;51.370;-0.486;2022-12-07T06:45:47;17.15;;;4.55;;
71423;SDS011;59240;51.370;-0.486;2022-12-07T06:48:14;19.83;;;4.93;;
71423;SDS011;59240;51.370;-0.486;2022-12-07T06:50:40;16.17;;;5.37;;
71423;SDS011;59240;51.370;-0.486;2022-12-07T06:53:07;17.42;;;5.05;;
71423;SDS011;59240;51.370;-0.486;2022-12-07T06:55:34;20.35;;;5.35;;
71423;SDS011;59240;51.370;-0.486;2022-12-07T06:58:01;15.57;;;5.50;;
71423;SDS011;59240;51.370;-0.486;2022-12-07T07:00:28;14.57;;;4.90;;
71423;SDS011;59240;51.370;-0.486;2022-12-07T07:02:55;15.33;;;4.90;;
71423;SDS011;59240;51.370;-0.486;2022-12-07T07:05:22;16.13;;;5.45;;
71423;SDS011;59240;51.370;-0.486;2022-12-07T07:07:49;13.48;;;4.90;;
71423;SDS011;59240;51.370;-0.486;2022-12-07T07:10:35;14.15;;;4.68;;
71423;SDS011;59240;51.370;-0.486;2022-12-07T07:13:03;15.35;;;4.72;;
71423;SDS011;59240;51.370;-0.486;2022-12-07T07:15:30;13.60;;;4.00;;
71423;SDS011;59240;51.370;-0.486;2022-12-07T07:17:56;14.55;;;5.18;;
71423;SDS011;59240;51.370;-0.486;2022-12-07T07:20:29;15.65;;;4.60;;
71423;SDS011;59240;51.370;-0.486;2022-12-07T07:22:56;14.05;;;5.18;;
71423;SDS011;59240;51.370;-0.486;2022-12-07T07:25:23;14.93;;;4.90;;
71423;SDS011;59240;51.370;-0.486;2022-12-07T07:27:49;13.83;;;4.90;;
71423;SDS011;59240;51.370;-0.486;2022-12-07T07:30:16;18.45;;;5.13;;
71423;SDS011;59240;51.370;-0.486;2022-12-07T07:32:42;13.65;;;4.75;;
71423;SDS011;59240;51.370;-0.486;2022-12-07T07:35:09;13.95;;;4.97;;
71423;SDS011;59240;51.370;-0.486;2022-12-07T07:37:36;16.90;;;4.60;;
71423;SDS011;59240;51.370;-0.486;2022-12-07T07:40:02;14.30;;;4.23;;
71423;SDS011;59240;51.370;-0.486;2022-12-07T07:42:30;14.23;;;4.68;;
71423;SDS011;59240;51.370;-0.486;2022-12-07T07:44:56;13.13;;;4.53;;
71423;SDS011;59240;51.370;-0.486;2022-12-07T07:47:23;13.15;;;4.25;;
71423;SDS011;59240;51.370;-0.486;2022-12-07T07:49:50;17.75;;;5.22;;
71423;SDS011;59240;51.370;-0.486;2022-12-07T07:52:16;17.57;;;6.23;;
71423;SDS011;59240;51.370;-0.486;2022-12-07T07:54:43;17.38;;;6.53;;
71423;SDS011;59240;51.370;-0.486;2022-12-07T07:57:09;16.90;;;5.55;;
71423;SDS011;59240;51.370;-0.486;2022-12-07T07:59:36;18.27;;;5.68;;
71423;SDS011;59240;51.370;-0.486;2022-12-07T08:02:02;20.70;;;5.93;;
71423;SDS011;59240;51.370;-0.486;2022-12-07T08:04:29;18.60;;;7.33;;
71423;SDS011;59240;51.370;-0.486;2022-12-07T08:06:56;21.80;;;7.25;;
71423;SDS011;59240;51.370;-0.486;2022-12-07T08:09:23;19.40;;;7.03;;
71423;SDS011;59240;51.370;-0.486;2022-12-07T08:11:49;14.65;;;5.38;;
71423;SDS011;59240;51.370;-0.486;2022-12-07T08:14:16;15.98;;;5.28;;
71423;SDS011;59240;51.370;-0.486;2022-12-07T08:16:42;18.53;;;5.27;;
71423;SDS011;59240;51.370;-0.486;2022-12-07T08:19:09;16.38;;;5.65;;
71423;SDS011;59240;51.370;-0.486;2022-12-07T08:21:35;20.40;;;5.78;;
71423;SDS011;59240;51.370;-0.486;2022-12-07T08:24:03;18.40;;;4.97;;
71423;SDS011;59240;51.370;-0.486;2022-12-07T08:26:30;18.98;;;5.72;;
71423;SDS011;59240;51.370;-0.486;2022-12-07T08:28:57;18.20;;;6.27;;
71423;SDS011;59240;51.370;-0.486;2022-12-07T08:31:23;14.98;;;5.57;;
71423;SDS011;59240;51.370;-0.486;2022-12-07T08:33:50;16.10;;;5.50;;
71423;SDS011;59240;51.370;-0.486;2022-12-07T08:36:17;15.75;;;6.13;;
71423;SDS011;59240;51.370;-0.486;2022-12-07T08:38:44;18.60;;;5.53;;
71423;SDS011;59240;51.370;-0.486;2022-12-07T08:41:30;17.37;;;6.37;;
71423;SDS011;59240;51.370;-0.486;2022-12-07T08:43:57;21.20;;;6.97;;
71423;SDS011;59240;51.370;-0.486;2022-12-07T08:46:25;19.65;;;6.07;;
71423;SDS011;59240;51.370;-0.486;2022-12-07T08:49:08;20.88;;;6.60;;
71423;SDS011;59240;51.370;-0.486;2022-12-07T08:51:36;24.40;;;6.88;;
71423;SDS011;59240;51.370;-0.486;2022-12-07T08:54:04;18.70;;;6.80;;
71423;SDS011;59240;51.370;-0.486;2022-12-07T08:56:33;15.57;;;5.65;;
71423;SDS011;59240;51.370;-0.486;2022-12-07T08:59:00;14.35;;;5.50;;
71423;SDS011;59240;51.370;-0.486;2022-12-07T09:01:28;18.08;;;6.38;;
71423;SDS011;59240;51.370;-0.486;2022-12-07T09:03:55;22.33;;;6.47;;
71423;SDS011;59240;51.370;-0.486;2022-12-07T09:06:22;20.20;;;6.63;;
71423;SDS011;59240;51.370;-0.486;2022-12-07T09:08:49;20.60;;;6.38;;
71423;SDS011;59240;51.370;-0.486;2022-12-07T09:11:20;16.92;;;6.00;;
71423;SDS011;59240;51.370;-0.486;2022-12-07T09:13:53;20.02;;;6.30;;
71423;SDS011;59240;51.370;-0.486;2022-12-07T09:16:20;19.77;;;6.25;;
71423;SDS011;59240;51.370;-0.486;2022-12-07T09:18:47;16.63;;;5.70;;
71423;SDS011;59240;51.370;-0.486;2022-12-07T09:21:13;19.48;;;5.50;;
71423;SDS011;59240;51.370;-0.486;2022-12-07T09:23:41;20.48;;;6.28;;
71423;SDS011;59240;51.370;-0.486;2022-12-07T09:26:08;18.20;;;6.32;;
71423;SDS011;59240;51.370;-0.486;2022-12-07T09:28:36;17.55;;;6.47;;
71423;SDS011;59240;51.370;-0.486;2022-12-07T09:31:03;21.13;;;5.23;;
71423;SDS011;59240;51.370;-0.486;2022-12-07T09:33:57;18.02;;;5.88;;
71423;SDS011;59240;51.370;-0.486;2022-12-07T09:36:26;19.30;;;5.90;;
71423;SDS011;59240;51.370;-0.486;2022-12-07T09:38:53;17.00;;;6.00;;
71423;SDS011;59240;51.370;-0.486;2022-12-07T09:41:20;17.95;;;5.47;;
71423;SDS011;59240;51.370;-0.486;2022-12-07T09:43:48;21.23;;;6.83;;
71423;SDS011;59240;51.370;-0.486;2022-12-07T09:46:15;18.23;;;6.78;;
71423;SDS011;59240;51.370;-0.486;2022-12-07T09:48:45;21.83;;;6.07;;
71423;SDS011;59240;51.370;-0.486;2022-12-07T09:51:17;16.40;;;5.60;;
71423;SDS011;59240;51.370;-0.486;2022-12-07T09:53:50;22.40;;;9.25;;
71423;SDS011;59240;51.370;-0.486;2022-12-07T09:56:22;17.73;;;5.83;;
71423;SDS011;59240;51.370;-0.486;2022-12-07T09:58:51;18.90;;;7.15;;
71423;SDS011;59240;51.370;-0.486;2022-12-07T10:01:27;21.30;;;6.82;;
71423;SDS011;59240;51.370;-0.486;2022-12-07T10:04:01;19.50;;;6.65;;
71423;SDS011;59240;51.370;-0.486;2022-12-07T10:06:35;21.63;;;10.65;;
71423;SDS011;59240;51.370;-0.486;2022-12-07T10:09:07;17.63;;;5.00;;
71423;SDS011;59240;51.370;-0.486;2022-12-07T10:11:57;27.55;;;7.70;;
71423;SDS011;59240;51.370;-0.486;2022-12-07T10:14:25;22.90;;;6.40;;
71423;SDS011;59240;51.370;-0.486;2022-12-07T10:22:53;22.07;;;6.43;;
71423;SDS011;59240;51.370;-0.486;2022-12-07T10:25:21;23.20;;;6.65;;
71423;SDS011;59240;51.370;-0.486;2022-12-07T10:30:54;20.42;;;7.03;;
71423;SDS011;59240;51.370;-0.486;2022-12-07T10:36:01;24.00;;;7.70;;
71423;SDS011;59240;51.370;-0.486;2022-12-07T10:38:44;21.83;;;6.35;;
71423;SDS011;59240;51.370;-0.486;2022-12-07T10:41:13;18.90;;;5.38;;
71423;SDS011;59240;51.370;-0.486;2022-12-07T10:43:46;17.80;;;6.32;;
71423;SDS011;59240;51.370;-0.486;2022-12-07T11:00:11;18.65;;;6.55;;
71423;SDS011;59240;51.370;-0.486;2022-12-07T11:12:36;13.90;;;4.93;;
71423;SDS011;59240;51.370;-0.486;2022-12-07T11:15:17;20.08;;;5.43;;
71423;SDS011;59240;51.370;-0.486;2022-12-07T11:17:49;16.97;;;5.80;;
71423;SDS011;59240;51.370;-0.486;2022-12-07T11:23:12;16.30;;;6.07;;
71423;SDS011;59240;51.370;-0.486;2022-12-07T11:38:54;13.60;;;4.43;;
71423;SDS011;59240;51.370;-0.486;2022-12-07T11:41:32;11.98;;;4.40;;
71423;SDS011;59240;51.370;-0.486;2022-12-07T11:44:05;15.47;;;4.33;;
71423;SDS011;59240;51.370;-0.486;2022-12-07T11:46:57;12.23;;;4.57;;
71423;SDS011;59240;51.370;-0.486;2022-12-07T11:49:41;13.30;;;4.82;;
71423;SDS011;59240;51.370;-0.486;2022-12-07T11:52:48;9.43;;;3.28;;
71423;SDS011;59240;51.370;-0.486;2022-12-07T11:55:24;12.75;;;4.38;;
71423;SDS011;59240;51.370;-0.486;2022-12-07T11:58:04;13.03;;;5.13;;
71423;SDS011;59240;51.370;-0.486;2022-12-07T12:00:40;15.18;;;4.68;;
71423;SDS011;59240;51.370;-0.486;2022-12-07T12:03:19;15.70;;;5.00;;
71423;SDS011;59240;51.370;-0.486;2022-12-07T12:05:56;13.60;;;4.38;;
71423;SDS011;59240;51.370;-0.486;2022-12-07T12:08:46;19.42;;;5.30;;
71423;SDS011;59240;51.370;-0.486;2022-12-07T12:20:29;13.77;;;4.47;;
71423;SDS011;59240;51.370;-0.486;2022-12-07T12:26:05;11.83;;;4.00;;
71423;SDS011;59240;51.370;-0.486;2022-12-07T12:28:39;10.98;;;4.10;;
71423;SDS011;59240;51.370;-0.486;2022-12-07T12:33:48;13.57;;;4.50;;
71423;SDS011;59240;51.370;-0.486;2022-12-07T12:39:14;13.47;;;4.23;;
71423;SDS011;59240;51.370;-0.486;2022-12-07T12:54:35;15.93;;;4.45;;
71423;SDS011;59240;51.370;-0.486;2022-12-07T13:00:00;16.35;;;4.25;;
71423;SDS011;59240;51.370;-0.486;2022-12-07T13:02:48;12.65;;;3.80;;
71423;SDS011;59240;51.370;-0.486;2022-12-07T13:05:18;15.73;;;4.60;;
71423;SDS011;59240;51.370;-0.486;2022-12-07T13:10:29;12.10;;;3.83;;
71423;SDS011;59240;51.370;-0.486;2022-12-07T13:15:41;10.35;;;4.15;;
71423;SDS011;59240;51.370;-0.486;2022-12-07T13:26:00;12.50;;;3.33;;
71423;SDS011;59240;51.370;-0.486;2022-12-07T13:28:47;10.80;;;3.17;;
71423;SDS011;59240;51.370;-0.486;2022-12-07T13:34:02;10.73;;;3.72;;
71423;SDS011;59240;51.370;-0.486;2022-12-07T13:36:37;12.65;;;3.20;;
71423;SDS011;59240;51.370;-0.486;2022-12-07T13:41:43;11.48;;;2.90;;
71423;SDS011;59240;51.370;-0.486;2022-12-07T13:44:12;6.53;;;2.20;;
71423;SDS011;59240;51.370;-0.486;2022-12-07T13:46:49;8.77;;;2.13;;
71423;SDS011;59240;51.370;-0.486;2022-12-07T13:51:49;9.50;;;2.60;;
71423;SDS011;59240;51.370;-0.486;2022-12-07T13:54:16;11.13;;;3.10;;
71423;SDS011;59240;51.370;-0.486;2022-12-07T13:56:44;9.90;;;2.40;;
71423;SDS011;59240;51.370;-0.486;2022-12-07T13:59:17;11.50;;;3.05;;
71423;SDS011;59240;51.370;-0.486;2022-12-07T14:01:46;9.27;;;2.45;;
71423;SDS011;59240;51.370;-0.486;2022-12-07T14:04:31;9.55;;;2.55;;
71423;SDS011;59240;51.370;-0.486;2022-12-07T14:07:00;11.80;;;2.20;;
71423;SDS011;59240;51.370;-0.486;2022-12-07T14:09:53;9.63;;;2.80;;
71423;SDS011;59240;51.370;-0.486;2022-12-07T14:12:31;10.05;;;2.95;;
71423;SDS011;59240;51.370;-0.486;2022-12-07T14:14:59;10.45;;;2.63;;
71423;SDS011;59240;51.370;-0.486;2022-12-07T14:17:28;12.98;;;2.90;;
71423;SDS011;59240;51.370;-0.486;2022-12-07T14:19:57;9.98;;;2.30;;
71423;SDS011;59240;51.370;-0.486;2022-12-07T14:22:27;9.03;;;2.87;;
71423;SDS011;59240;51.370;-0.486;2022-12-07T14:25:00;7.88;;;2.53;;
71423;SDS011;59240;51.370;-0.486;2022-12-07T14:27:39;10.13;;;2.65;;
71423;SDS011;59240;51.370;-0.486;2022-12-07T14:30:16;7.65;;;2.40;;
71423;SDS011;59240;51.370;-0.486;2022-12-07T14:32:44;9.98;;;2.58;;
71423;SDS011;59240;51.370;-0.486;2022-12-07T14:35:15;8.23;;;2.57;;
71423;SDS011;59240;51.370;-0.486;2022-12-07T14:37:44;8.85;;;2.35;;
71423;SDS011;59240;51.370;-0.486;2022-12-07T14:40:17;9.70;;;2.50;;
71423;SDS011;59240;51.370;-0.486;2022-12-07T14:42:46;7.32;;;2.30;;
71423;SDS011;59240;51.370;-0.486;2022-12-07T14:45:17;11.27;;;2.40;;
71423;SDS011;59240;51.370;-0.486;2022-12-07T14:47:46;9.23;;;2.97;;
71423;SDS011;59240;51.370;-0.486;2022-12-07T14:50:37;9.32;;;2.13;;
71423;SDS011;59240;51.370;-0.486;2022-12-07T14:53:30;10.57;;;2.15;;
71423;SDS011;59240;51.370;-0.486;2022-12-07T14:56:03;9.10;;;2.63;;
71423;SDS011;59240;51.370;-0.486;2022-12-07T14:58:31;10.80;;;2.88;;
71423;SDS011;59240;51.370;-0.486;2022-12-07T15:00:59;7.47;;;2.37;;
71423;SDS011;59240;51.370;-0.486;2022-12-07T15:03:26;11.63;;;2.90;;
71423;SDS011;59240;51.370;-0.486;2022-12-07T15:05:52;9.43;;;2.50;;
71423;SDS011;59240;51.370;-0.486;2022-12-07T15:08:19;9.52;;;2.65;;
71423;SDS011;59240;51.370;-0.486;2022-12-07T15:10:46;10.35;;;2.70;;
71423;SDS011;59240;51.370;-0.486;2022-12-07T15:13:13;8.53;;;2.77;;
71423;SDS011;59240;51.370;-0.486;2022-12-07T15:15:58;12.18;;;3.10;;
71423;SDS011;59240;51.370;-0.486;2022-12-07T15:18:24;17.92;;;3.83;;
71423;SDS011;59240;51.370;-0.486;2022-12-07T15:20:51;13.27;;;3.50;;
71423;SDS011;59240;51.370;-0.486;2022-12-07T15:23:17;15.15;;;3.85;;
71423;SDS011;59240;51.370;-0.486;2022-12-07T15:25:45;12.30;;;4.03;;
71423;SDS011;59240;51.370;-0.486;2022-12-07T15:28:13;15.52;;;4.03;;
71423;SDS011;59240;51.370;-0.486;2022-12-07T15:30:40;13.00;;;4.00;;
71423;SDS011;59240;51.370;-0.486;2022-12-07T15:33:09;12.38;;;4.07;;
71423;SDS011;59240;51.370;-0.486;2022-12-07T15:35:44;13.00;;;4.47;;
71423;SDS011;59240;51.370;-0.486;2022-12-07T15:38:11;11.77;;;4.10;;
71423;SDS011;59240;51.370;-0.486;2022-12-07T15:40:38;13.98;;;4.32;;
71423;SDS011;59240;51.370;-0.486;2022-12-07T15:43:05;13.10;;;3.88;;
71423;SDS011;59240;51.370;-0.486;2022-12-07T15:45:51;14.98;;;3.30;;
71423;SDS011;59240;51.370;-0.486;2022-12-07T15:48:18;14.30;;;3.67;;
71423;SDS011;59240;51.370;-0.486;2022-12-07T15:51:01;16.30;;;3.50;;
71423;SDS011;59240;51.370;-0.486;2022-12-07T15:53:32;9.00;;;2.95;;
71423;SDS011;59240;51.370;-0.486;2022-12-07T15:55:59;14.60;;;3.45;;
71423;SDS011;59240;51.370;-0.486;2022-12-07T15:58:26;9.00;;;2.60;;
71423;SDS011;59240;51.370;-0.486;2022-12-07T16:00:53;9.68;;;2.40;;
71423;SDS011;59240;51.370;-0.486;2022-12-07T16:03:19;8.80;;;2.47;;
71423;SDS011;59240;51.370;-0.486;2022-12-07T16:05:49;11.32;;;2.05;;
71423;SDS011;59240;51.370;-0.486;2022-12-07T16:08:16;9.38;;;2.53;;
71423;SDS011;59240;51.370;-0.486;2022-12-07T16:10:43;13.98;;;2.60;;
71423;SDS011;59240;51.370;-0.486;2022-12-07T16:13:10;12.48;;;2.78;;
71423;SDS011;59240;51.370;-0.486;2022-12-07T16:15:38;10.67;;;2.77;;
71423;SDS011;59240;51.370;-0.486;2022-12-07T16:18:05;9.45;;;2.13;;
71423;SDS011;59240;51.370;-0.486;2022-12-07T16:20:32;11.93;;;2.88;;
71423;SDS011;59240;51.370;-0.486;2022-12-07T16:22:59;11.80;;;2.90;;
71423;SDS011;59240;51.370;-0.486;2022-12-07T16:25:25;11.85;;;1.98;;
71423;SDS011;59240;51.370;-0.486;2022-12-07T16:27:52;13.50;;;2.53;;
71423;SDS011;59240;51.370;-0.486;2022-12-07T16:30:19;11.38;;;2.40;;
71423;SDS011;59240;51.370;-0.486;2022-12-07T16:32:45;9.20;;;2.30;;
71423;SDS011;59240;51.370;-0.486;2022-12-07T16:35:12;8.18;;;2.13;;
71423;SDS011;59240;51.370;-0.486;2022-12-07T16:37:41;9.50;;;2.38;;
71423;SDS011;59240;51.370;-0.486;2022-12-07T16:40:08;13.73;;;3.30;;
71423;SDS011;59240;51.370;-0.486;2022-12-07T16:42:35;7.18;;;2.75;;
71423;SDS011;59240;51.370;-0.486;2022-12-07T16:45:02;9.45;;;2.97;;
71423;SDS011;59240;51.370;-0.486;2022-12-07T16:47:30;9.82;;;2.42;;
71423;SDS011;59240;51.370;-0.486;2022-12-07T16:49:56;11.65;;;2.60;;
71423;SDS011;59240;51.370;-0.486;2022-12-07T16:52:23;10.83;;;3.00;;
71423;SDS011;59240;51.370;-0.486;2022-12-07T16:54:49;13.25;;;2.70;;
71423;SDS011;59240;51.370;-0.486;2022-12-07T16:57:16;12.07;;;3.50;;
71423;SDS011;59240;51.370;-0.486;2022-12-07T16:59:49;13.80;;;3.00;;
71423;SDS011;59240;51.370;-0.486;2022-12-07T17:02:16;12.27;;;2.83;;